Arroyo, Puerto Rico
Current Conditions -  °F | °C
As of 5:56 PM on Thursday 20 Nov 2014 (Local Time) from TJSJ Reporting Station
Scattered Clouds Scattered Clouds  
Wind Chill: 83°   Ceiling: Unl
Heat Index: 88°   Visibility: 10mi
Dew Point: 71°   Wind: 8mph
Humidity: 67%   Direction: 90°E
Pressure: 29.97"   Gusts: NA
Location:  17.97°N, 66.06°W
Report Text: TJSJ 202156Z 09007KT 10SM FEW036 SCT090 28/22 A2997 RMK AO2 SLP146 P0001 T02830217
Loading
Personal Weather Stations






























Interactive Weather Map New forecast layout! Learn more

10-Day Weather Forecast

Advertisements
Track Severe Weather on mobile